Meadow Bluff, West Virginia
Current Conditions -  °F | °C
As of 8:15 AM on Wednesday 22 Oct 2014 (Local Time) from KLWB Reporting Station
Overcast Overcast  
Wind Chill: 45°   Ceiling: 2300
Heat Index: 45°   Visibility: 10mi
Dew Point: 38°   Wind: 3mph
Humidity: 77%   Direction: 310°NW
Pressure: 30.07"   Gusts: NA
Location:  37.9°N, 80.65°W
Report Text: KLWB 221215Z AUTO 31003KT 10SM BKN023 OVC028 07/04 A3007 RMK AO2 T00720035
Loading
Personal Weather Stations






























Interactive Weather Map
Tropical Storm Tracking
New forecast layout! Learn more

10-Day Weather Forecast

Advertisements
Track Severe Weather on mobile